createdAt,value
2023-01-31T00:01:26.408Z,32.70
2023-01-31T00:03:52.920Z,32.60
2023-01-31T00:06:19.453Z,32.70
2023-01-31T00:08:45.890Z,32.70
2023-01-31T00:11:12.354Z,33.10
2023-01-31T00:13:39.076Z,32.60
2023-01-31T00:16:05.782Z,33.20
2023-01-31T00:18:32.359Z,32.50
2023-01-31T00:20:58.837Z,32.30
2023-01-31T00:23:25.330Z,33.00
2023-01-31T00:25:51.781Z,32.90
2023-01-31T00:28:18.236Z,32.20
2023-01-31T00:30:44.667Z,32.60
2023-01-31T00:33:11.149Z,32.30
2023-01-31T00:35:37.701Z,32.60
2023-01-31T00:38:04.646Z,32.60
2023-01-31T00:40:31.153Z,33.00
2023-01-31T00:42:57.688Z,32.60
2023-01-31T00:45:24.157Z,32.70
2023-01-31T00:47:50.603Z,32.30
2023-01-31T00:50:17.090Z,32.50
2023-01-31T00:52:43.595Z,32.90
2023-01-31T00:55:10.038Z,32.50
2023-01-31T00:57:37.049Z,32.50
2023-01-31T01:00:03.578Z,33.10
2023-01-31T01:02:30.017Z,32.60
2023-01-31T01:04:56.485Z,33.00
2023-01-31T01:07:22.927Z,32.50
2023-01-31T01:09:49.392Z,31.60
2023-01-31T01:12:15.887Z,32.40
2023-01-31T01:14:42.375Z,32.50
2023-01-31T01:19:36.062Z,32.40
2023-01-31T01:22:02.612Z,32.40
2023-01-31T01:24:29.107Z,32.50
2023-01-31T01:26:55.602Z,32.50
2023-01-31T01:29:22.135Z,32.50
2023-01-31T01:31:48.702Z,32.40
2023-01-31T01:34:15.244Z,32.80
2023-01-31T01:36:41.911Z,32.90
2023-01-31T01:39:08.444Z,33.00
2023-01-31T01:41:34.932Z,32.00
2023-01-31T01:44:01.439Z,32.70
2023-01-31T01:48:54.902Z,32.90
2023-01-31T01:51:21.387Z,32.40
2023-01-31T01:53:47.841Z,32.00
2023-01-31T01:56:14.325Z,32.30
2023-01-31T01:58:40.838Z,32.20
2023-01-31T02:01:07.383Z,32.80
2023-01-31T02:03:33.901Z,32.90
2023-01-31T02:06:00.391Z,32.70
2023-01-31T02:08:26.881Z,32.40
2023-01-31T02:10:53.382Z,32.50
2023-01-31T02:13:19.876Z,32.30
2023-01-31T02:15:46.333Z,32.90
2023-01-31T02:18:12.816Z,32.30
2023-01-31T02:20:39.263Z,32.80
2023-01-31T02:23:05.776Z,32.20
2023-01-31T02:25:32.260Z,32.70
2023-01-31T02:27:58.739Z,32.70
2023-01-31T02:30:25.251Z,32.40
2023-01-31T02:32:51.721Z,32.30
2023-01-31T02:35:18.738Z,32.60
2023-01-31T02:37:45.505Z,32.50
2023-01-31T02:40:11.939Z,33.00
2023-01-31T02:42:38.378Z,32.90
2023-01-31T02:45:04.860Z,33.00
2023-01-31T02:47:31.321Z,32.50
2023-01-31T02:49:57.758Z,33.00
2023-01-31T02:52:24.205Z,32.40
2023-01-31T02:54:50.665Z,32.20
2023-01-31T02:57:17.171Z,33.10
2023-01-31T02:59:43.669Z,33.10
2023-01-31T03:02:10.173Z,33.70
2023-01-31T03:04:36.933Z,32.40
2023-01-31T03:07:03.480Z,32.90
2023-01-31T03:09:30.025Z,32.90
2023-01-31T03:11:56.519Z,33.00
2023-01-31T03:14:23.006Z,32.40
2023-01-31T03:16:49.533Z,32.40
2023-01-31T03:19:16.113Z,32.90
2023-01-31T03:21:42.614Z,32.40
2023-01-31T03:24:09.122Z,32.30
2023-01-31T03:26:35.626Z,32.50
2023-01-31T03:29:02.131Z,32.70
2023-01-31T03:31:28.727Z,32.30
2023-01-31T03:33:55.285Z,32.30
2023-01-31T03:36:21.788Z,32.40
2023-01-31T03:38:48.276Z,32.20
2023-01-31T03:41:15.067Z,32.70
2023-01-31T03:43:41.706Z,32.40
2023-01-31T03:46:08.179Z,32.30
2023-01-31T03:48:34.675Z,32.10
2023-01-31T03:51:01.215Z,32.30
2023-01-31T03:53:27.707Z,32.40
2023-01-31T03:55:54.160Z,31.60
2023-01-31T03:58:20.727Z,32.30
2023-01-31T04:00:47.211Z,32.30
2023-01-31T04:03:13.846Z,32.20
2023-01-31T04:05:40.341Z,32.20
2023-01-31T04:08:06.840Z,32.70
2023-01-31T04:10:33.333Z,32.70
2023-01-31T04:12:59.797Z,32.50
2023-01-31T04:15:26.240Z,31.80
2023-01-31T04:17:52.726Z,32.40
2023-01-31T04:20:19.228Z,32.30
2023-01-31T04:22:45.694Z,32.30
2023-01-31T04:25:12.494Z,32.70
2023-01-31T04:27:39.026Z,32.60
2023-01-31T04:30:05.508Z,32.70
2023-01-31T04:32:31.994Z,32.10
2023-01-31T04:35:00.671Z,32.10
2023-01-31T04:37:27.832Z,32.60
2023-01-31T04:39:54.285Z,32.20
2023-01-31T04:42:20.810Z,32.40
2023-01-31T04:44:47.307Z,32.00
2023-01-31T04:47:13.801Z,31.90
2023-01-31T04:49:40.283Z,32.60
2023-01-31T04:52:07.373Z,32.10
2023-01-31T04:54:33.909Z,32.00
2023-01-31T04:57:00.417Z,32.60
2023-01-31T04:59:26.910Z,32.60
2023-01-31T05:01:53.372Z,32.10
2023-01-31T05:04:19.801Z,31.90
2023-01-31T05:06:46.298Z,32.30
2023-01-31T05:09:12.741Z,32.10
2023-01-31T05:11:39.250Z,32.50
2023-01-31T05:14:05.715Z,32.60
2023-01-31T05:16:32.657Z,32.20
2023-01-31T05:18:59.166Z,32.20
2023-01-31T05:21:25.606Z,32.60
2023-01-31T05:26:19.122Z,32.10
2023-01-31T05:28:45.649Z,32.10
2023-01-31T05:31:12.411Z,32.00
2023-01-31T05:36:06.052Z,32.10
2023-01-31T05:38:32.522Z,31.30
2023-01-31T05:40:58.980Z,32.20
2023-01-31T05:43:25.467Z,32.20
2023-01-31T05:45:52.055Z,32.70
2023-01-31T05:48:18.539Z,32.30
2023-01-31T05:50:45.028Z,32.80
2023-01-31T05:53:11.477Z,32.80
2023-01-31T05:55:37.957Z,32.80
2023-01-31T05:58:04.425Z,32.40
2023-01-31T06:00:31.046Z,32.80
2023-01-31T06:02:57.617Z,32.50
2023-01-31T06:05:24.147Z,33.10
2023-01-31T06:10:20.135Z,32.90
2023-01-31T06:12:47.350Z,32.30
2023-01-31T06:15:13.801Z,33.00
2023-01-31T06:17:40.261Z,32.30
2023-01-31T06:20:06.736Z,32.90
2023-01-31T06:22:33.179Z,32.40
2023-01-31T06:24:59.663Z,32.60
2023-01-31T06:27:26.108Z,32.40
2023-01-31T06:29:52.625Z,32.40
2023-01-31T06:32:19.108Z,32.70
2023-01-31T06:34:45.581Z,33.10
2023-01-31T06:37:12.069Z,33.00
2023-01-31T06:39:38.590Z,33.10
2023-01-31T06:42:05.095Z,32.80
2023-01-31T06:44:31.656Z,32.50
2023-01-31T06:46:58.117Z,32.70
2023-01-31T06:49:24.567Z,33.10
2023-01-31T06:51:51.048Z,33.40
2023-01-31T06:54:17.491Z,32.70
2023-01-31T06:56:43.974Z,32.80
2023-01-31T06:59:10.460Z,32.80
2023-01-31T07:01:37.017Z,32.70
2023-01-31T07:04:03.548Z,32.60
2023-01-31T07:06:30.453Z,32.80
2023-01-31T07:08:57.032Z,32.70
2023-01-31T07:11:23.484Z,33.10
2023-01-31T07:13:49.987Z,32.60
2023-01-31T07:16:16.468Z,33.20
2023-01-31T07:18:43.001Z,32.50
2023-01-31T07:21:09.489Z,32.30
2023-01-31T07:23:36.005Z,32.40
2023-01-31T07:26:02.508Z,32.20
2023-01-31T07:28:28.996Z,32.80
2023-01-31T07:30:55.513Z,32.40
2023-01-31T07:33:22.063Z,32.20
2023-01-31T07:35:48.556Z,32.70
2023-01-31T07:38:15.008Z,32.00
2023-01-31T07:40:41.463Z,32.40
2023-01-31T07:43:07.916Z,31.80
2023-01-31T07:45:34.695Z,32.50
2023-01-31T07:48:01.490Z,32.00
2023-01-31T07:50:28.038Z,32.00
2023-01-31T07:52:54.557Z,32.10
2023-01-31T07:55:21.527Z,32.50
2023-01-31T07:57:48.552Z,32.70
2023-01-31T08:00:15.097Z,32.60
2023-01-31T08:05:08.576Z,32.30
2023-01-31T08:07:35.055Z,32.20
2023-01-31T08:10:01.615Z,33.00
2023-01-31T08:12:28.080Z,33.30
2023-01-31T08:14:54.509Z,32.90
2023-01-31T08:17:20.996Z,32.80
2023-01-31T08:19:47.498Z,32.60
2023-01-31T08:24:40.923Z,32.60
2023-01-31T08:27:07.368Z,32.60
2023-01-31T08:29:33.836Z,32.80
2023-01-31T08:32:00.452Z,32.60
2023-01-31T08:34:26.983Z,32.10
2023-01-31T08:36:53.494Z,32.90
2023-01-31T08:39:19.997Z,32.00
2023-01-31T08:41:46.528Z,32.00
2023-01-31T08:44:13.013Z,32.90
2023-01-31T08:46:39.571Z,32.20
2023-01-31T08:49:06.205Z,32.30
2023-01-31T08:51:32.686Z,32.90
2023-01-31T08:53:59.116Z,32.90
2023-01-31T08:56:25.627Z,32.50
2023-01-31T08:58:52.127Z,32.30
2023-01-31T09:01:18.675Z,32.90
2023-01-31T09:03:45.691Z,32.40
2023-01-31T09:06:12.346Z,32.50
2023-01-31T09:08:38.880Z,33.00
2023-01-31T09:11:05.363Z,32.80
2023-01-31T09:13:32.376Z,32.50
2023-01-31T09:15:58.858Z,33.00
2023-01-31T09:18:25.310Z,33.10
2023-01-31T09:20:51.808Z,33.00
2023-01-31T09:23:18.284Z,32.20
2023-01-31T09:25:47.776Z,32.00
2023-01-31T09:28:14.505Z,32.90
2023-01-31T09:30:41.060Z,32.40
2023-01-31T09:33:07.565Z,33.30
2023-01-31T09:35:34.252Z,33.20
2023-01-31T09:38:00.731Z,32.50
2023-01-31T09:40:27.262Z,32.50
2023-01-31T09:42:53.782Z,32.40
2023-01-31T09:45:20.699Z,32.60
2023-01-31T09:47:47.288Z,32.50
2023-01-31T09:52:40.684Z,32.60
2023-01-31T09:55:07.176Z,32.90
2023-01-31T09:57:33.637Z,32.50
2023-01-31T10:00:00.137Z,32.50
2023-01-31T10:02:26.656Z,33.20
2023-01-31T10:04:53.106Z,32.40
2023-01-31T10:07:19.587Z,32.80
2023-01-31T10:09:46.027Z,33.20
2023-01-31T10:12:12.505Z,33.20
2023-01-31T10:14:38.952Z,32.60
2023-01-31T10:17:05.428Z,32.40
2023-01-31T10:19:31.899Z,32.50
2023-01-31T10:21:58.356Z,32.70
2023-01-31T10:26:51.872Z,32.70
2023-01-31T10:29:18.365Z,32.70
2023-01-31T10:31:44.914Z,33.10
2023-01-31T10:34:11.498Z,32.70
2023-01-31T10:36:37.978Z,32.60
2023-01-31T10:39:04.471Z,33.00
2023-01-31T10:41:31.251Z,33.20
2023-01-31T10:43:57.960Z,32.60
2023-01-31T10:46:24.446Z,33.00
2023-01-31T10:48:50.907Z,32.90
2023-01-31T10:51:17.406Z,32.90
2023-01-31T10:53:44.018Z,32.50
2023-01-31T10:56:10.531Z,32.80
2023-01-31T10:58:37.001Z,32.90
2023-01-31T11:01:04.084Z,32.60
2023-01-31T11:05:57.595Z,32.50
2023-01-31T11:08:24.059Z,32.50
2023-01-31T11:10:50.517Z,32.10
2023-01-31T11:13:16.967Z,32.20
2023-01-31T11:15:43.420Z,32.70
2023-01-31T11:18:09.917Z,32.10
2023-01-31T11:20:36.407Z,32.30
2023-01-31T11:23:02.923Z,32.10
2023-01-31T11:25:29.362Z,32.70
2023-01-31T11:27:55.873Z,32.10
2023-01-31T11:30:22.774Z,32.60
2023-01-31T11:32:49.438Z,32.10
2023-01-31T11:35:15.884Z,32.60
2023-01-31T11:37:42.328Z,32.40
2023-01-31T11:40:08.771Z,32.20
2023-01-31T11:42:35.205Z,32.30
2023-01-31T11:45:01.702Z,32.20
2023-01-31T11:47:28.155Z,32.70
2023-01-31T11:49:54.625Z,32.20
2023-01-31T11:52:21.107Z,32.60
2023-01-31T11:54:47.611Z,32.40
2023-01-31T11:57:14.048Z,32.60
2023-01-31T11:59:40.527Z,32.30
2023-01-31T12:02:07.001Z,32.60
2023-01-31T12:04:33.512Z,33.10
2023-01-31T12:09:27.011Z,32.80
2023-01-31T12:11:53.571Z,33.30
2023-01-31T12:14:20.103Z,32.80
2023-01-31T12:16:46.617Z,32.80
2023-01-31T12:19:13.129Z,33.40
2023-01-31T12:21:39.676Z,32.80
2023-01-31T12:24:06.180Z,33.00
2023-01-31T12:26:32.771Z,33.40
2023-01-31T12:28:59.264Z,33.40
2023-01-31T12:31:25.750Z,32.90
2023-01-31T12:36:19.169Z,32.70
2023-01-31T12:38:45.664Z,33.10
2023-01-31T12:41:12.159Z,32.70
2023-01-31T12:43:38.608Z,32.80
2023-01-31T12:46:05.144Z,33.30
2023-01-31T12:48:31.653Z,32.70
2023-01-31T12:50:58.113Z,32.50
2023-01-31T12:53:24.597Z,32.90
2023-01-31T12:55:51.107Z,32.90
2023-01-31T12:58:17.629Z,33.30
2023-01-31T13:00:44.123Z,32.90
2023-01-31T13:03:10.663Z,32.80
2023-01-31T13:05:37.306Z,33.10
2023-01-31T13:08:03.784Z,33.10
2023-01-31T13:10:30.266Z,32.90
2023-01-31T13:12:56.724Z,32.70
2023-01-31T13:15:23.405Z,32.80
2023-01-31T13:17:50.032Z,33.40
2023-01-31T13:20:16.540Z,32.80
2023-01-31T13:22:43.046Z,32.90
2023-01-31T13:25:09.513Z,33.30
2023-01-31T13:30:04.779Z,32.80
2023-01-31T13:32:31.225Z,32.80
2023-01-31T13:34:57.686Z,33.20
2023-01-31T13:37:24.175Z,33.10
2023-01-31T13:42:17.616Z,32.60
2023-01-31T13:44:44.068Z,32.80
2023-01-31T13:47:10.539Z,33.30
2023-01-31T13:52:03.975Z,33.10
2023-01-31T13:54:30.476Z,33.50
2023-01-31T13:56:56.921Z,33.10
2023-01-31T13:59:23.404Z,32.10
2023-01-31T14:01:49.992Z,32.80
2023-01-31T14:04:16.609Z,32.90
2023-01-31T14:06:44.235Z,33.40
2023-01-31T14:09:10.697Z,33.20
2023-01-31T14:11:37.184Z,33.10
2023-01-31T14:14:03.654Z,33.20
2023-01-31T14:16:30.141Z,33.60
2023-01-31T14:18:56.684Z,33.60
2023-01-31T14:21:23.146Z,33.20
2023-01-31T14:23:49.599Z,33.10
2023-01-31T14:26:16.086Z,33.40
2023-01-31T14:31:09.579Z,33.30
2023-01-31T14:33:36.064Z,33.50
2023-01-31T14:36:02.523Z,33.40
2023-01-31T14:38:29.007Z,33.60
2023-01-31T14:40:55.537Z,33.70
2023-01-31T14:43:22.039Z,33.20
2023-01-31T14:45:48.553Z,33.80
2023-01-31T14:48:15.028Z,33.60
2023-01-31T14:50:41.522Z,33.20
2023-01-31T14:53:08.001Z,33.50
2023-01-31T14:55:34.478Z,32.80
2023-01-31T14:58:00.962Z,33.90
2023-01-31T15:00:27.432Z,33.80
2023-01-31T15:02:53.971Z,34.10
2023-01-31T15:05:20.709Z,34.30
2023-01-31T15:07:47.281Z,34.80
2023-01-31T15:10:13.767Z,34.40
2023-01-31T15:12:40.206Z,33.70
2023-01-31T15:15:06.696Z,34.20
2023-01-31T15:17:37.641Z,34.90
2023-01-31T15:20:05.681Z,34.20
2023-01-31T15:22:32.154Z,34.50
2023-01-31T15:24:58.646Z,34.10
2023-01-31T15:27:25.141Z,34.00
2023-01-31T15:29:51.653Z,34.10
2023-01-31T15:32:18.110Z,33.90
2023-01-31T15:34:44.542Z,33.90
2023-01-31T15:37:10.997Z,34.40
2023-01-31T15:39:37.455Z,34.00
2023-01-31T15:42:03.976Z,34.20
2023-01-31T15:44:30.411Z,33.70
2023-01-31T15:46:56.856Z,33.60
2023-01-31T15:49:38.112Z,33.80
2023-01-31T15:52:05.857Z,33.80
2023-01-31T15:54:32.349Z,34.00
2023-01-31T15:56:58.834Z,34.10
2023-01-31T15:59:25.318Z,33.80
2023-01-31T16:01:51.810Z,33.60
2023-01-31T16:06:45.245Z,33.50
2023-01-31T16:09:11.686Z,34.10
2023-01-31T16:11:38.111Z,33.60
2023-01-31T16:14:04.585Z,33.60
2023-01-31T16:16:31.102Z,33.50
2023-01-31T16:18:57.621Z,33.90
2023-01-31T16:21:24.072Z,34.00
2023-01-31T16:23:51.741Z,34.00
2023-01-31T16:26:18.238Z,33.80
2023-01-31T16:28:44.675Z,33.90
2023-01-31T16:31:11.271Z,34.10
2023-01-31T16:33:37.865Z,33.80
2023-01-31T16:38:42.181Z,34.00
2023-01-31T16:41:08.652Z,34.00
2023-01-31T16:43:35.139Z,33.80
2023-01-31T16:46:01.638Z,34.30
2023-01-31T16:48:28.169Z,32.90
2023-01-31T16:50:54.621Z,34.50
2023-01-31T16:53:21.106Z,33.90
2023-01-31T16:55:47.597Z,33.80
2023-01-31T16:58:14.053Z,34.30
2023-01-31T17:00:40.528Z,33.40
2023-01-31T17:05:34.012Z,34.10
2023-01-31T17:08:00.485Z,33.50
2023-01-31T17:10:26.957Z,33.60
2023-01-31T17:12:53.455Z,33.50
2023-01-31T17:15:20.211Z,34.00
2023-01-31T17:17:46.880Z,32.50
2023-01-31T17:20:13.367Z,33.20
2023-01-31T17:22:40.280Z,33.80
2023-01-31T17:25:06.803Z,33.30
2023-01-31T17:27:33.332Z,33.60
2023-01-31T17:29:59.873Z,33.80
2023-01-31T17:32:26.312Z,33.40
2023-01-31T17:34:52.806Z,33.50
2023-01-31T17:37:30.135Z,33.50
2023-01-31T17:39:58.037Z,33.40
2023-01-31T17:42:24.537Z,33.80
2023-01-31T17:44:51.008Z,33.60
2023-01-31T17:47:17.460Z,33.60
2023-01-31T17:49:45.139Z,33.50
2023-01-31T17:52:11.842Z,33.20
2023-01-31T17:54:38.323Z,33.40
2023-01-31T17:57:04.844Z,33.80
2023-01-31T17:59:31.358Z,33.40
2023-01-31T18:01:57.902Z,32.80
2023-01-31T18:04:24.491Z,33.30
2023-01-31T18:06:51.097Z,33.20
2023-01-31T18:09:17.587Z,33.70
2023-01-31T18:11:44.038Z,33.60
2023-01-31T18:14:10.524Z,33.30
2023-01-31T18:16:36.995Z,33.00
2023-01-31T18:19:03.454Z,33.50
2023-01-31T18:21:29.936Z,32.90
2023-01-31T18:23:56.399Z,33.50
2023-01-31T18:26:22.937Z,33.10
2023-01-31T18:28:49.413Z,33.60
2023-01-31T18:31:16.075Z,33.70
2023-01-31T18:33:42.607Z,33.70
2023-01-31T18:36:09.085Z,33.70
2023-01-31T18:38:35.548Z,33.60
2023-01-31T18:41:01.986Z,33.30
2023-01-31T18:43:28.449Z,33.80
2023-01-31T18:45:54.932Z,34.10
2023-01-31T18:51:11.926Z,34.50
2023-01-31T18:53:38.435Z,34.10
2023-01-31T18:56:05.824Z,34.50
2023-01-31T18:58:32.440Z,33.80
2023-01-31T19:00:58.906Z,34.50
2023-01-31T19:03:25.402Z,33.30
2023-01-31T19:05:51.890Z,34.60
2023-01-31T19:08:18.339Z,34.50
2023-01-31T19:10:44.790Z,34.70
2023-01-31T19:13:11.259Z,34.70
2023-01-31T19:15:37.727Z,34.70
2023-01-31T19:18:04.193Z,34.10
2023-01-31T19:22:57.664Z,34.30
2023-01-31T19:25:24.092Z,34.30
2023-01-31T19:27:50.583Z,34.60
2023-01-31T19:30:17.021Z,34.30
2023-01-31T19:32:43.575Z,33.80
2023-01-31T19:35:10.087Z,34.10
2023-01-31T19:37:36.545Z,34.40
2023-01-31T19:40:03.041Z,34.10
2023-01-31T19:42:29.516Z,34.50
2023-01-31T19:44:56.006Z,34.40
2023-01-31T19:47:22.456Z,33.90
2023-01-31T19:49:48.941Z,33.80
2023-01-31T19:52:15.395Z,34.20
2023-01-31T19:54:41.833Z,33.90
2023-01-31T19:57:08.297Z,34.10
2023-01-31T19:59:34.745Z,34.60
2023-01-31T20:02:01.206Z,34.40
2023-01-31T20:04:27.728Z,34.30
2023-01-31T20:06:54.168Z,34.30
2023-01-31T20:09:20.639Z,34.20
2023-01-31T20:11:47.129Z,33.80
2023-01-31T20:14:13.614Z,33.60
2023-01-31T20:16:40.159Z,34.10
2023-01-31T20:19:06.686Z,34.00
2023-01-31T20:21:33.155Z,34.00
2023-01-31T20:23:59.593Z,33.40
2023-01-31T20:26:26.058Z,34.00
2023-01-31T20:28:52.614Z,34.00
2023-01-31T20:31:19.172Z,33.90
2023-01-31T20:33:45.770Z,33.60
2023-01-31T20:36:12.213Z,34.20
2023-01-31T20:38:38.675Z,33.90
2023-01-31T20:41:05.216Z,33.80
2023-01-31T20:43:31.664Z,33.80
2023-01-31T20:45:58.162Z,33.90
2023-01-31T20:48:24.629Z,33.70
2023-01-31T20:50:51.111Z,33.80
2023-01-31T20:53:17.615Z,33.40
2023-01-31T20:55:44.080Z,33.90
2023-01-31T20:58:10.517Z,33.90
2023-01-31T21:00:36.991Z,33.70
2023-01-31T21:03:03.441Z,33.30
2023-01-31T21:05:29.911Z,33.30
2023-01-31T21:07:56.372Z,33.20
2023-01-31T21:10:23.061Z,33.80
2023-01-31T21:12:49.673Z,33.40
2023-01-31T21:15:16.167Z,33.20
2023-01-31T21:17:42.678Z,33.10
2023-01-31T21:20:09.163Z,33.50
2023-01-31T21:22:35.667Z,33.90
2023-01-31T21:25:02.159Z,33.40
2023-01-31T21:27:28.815Z,33.90
2023-01-31T21:29:55.477Z,33.90
2023-01-31T21:32:21.972Z,34.00
2023-01-31T21:34:48.488Z,33.50
2023-01-31T21:37:14.939Z,33.90
2023-01-31T21:39:41.403Z,34.10
2023-01-31T21:42:07.893Z,34.10
2023-01-31T21:44:34.369Z,33.60
2023-01-31T21:47:00.870Z,34.00
2023-01-31T21:49:27.374Z,33.50
2023-01-31T21:51:53.819Z,34.00
2023-01-31T21:54:20.272Z,33.40
2023-01-31T21:56:46.725Z,33.70
2023-01-31T21:59:13.199Z,32.90
2023-01-31T22:01:39.704Z,33.40
2023-01-31T22:04:06.207Z,32.80
2023-01-31T22:06:32.659Z,33.20
2023-01-31T22:08:59.109Z,33.00
2023-01-31T22:11:25.569Z,33.40
2023-01-31T22:13:54.789Z,32.80
2023-01-31T22:16:22.378Z,33.00
2023-01-31T22:18:48.898Z,33.40
2023-01-31T22:21:15.378Z,33.30
2023-01-31T22:23:41.880Z,33.10
2023-01-31T22:26:08.331Z,33.50
2023-01-31T22:28:34.856Z,33.50
2023-01-31T22:31:01.408Z,33.50
2023-01-31T22:33:27.974Z,33.00
2023-01-31T22:35:54.438Z,33.50
2023-01-31T22:38:20.920Z,33.10
2023-01-31T22:40:47.419Z,33.60
2023-01-31T22:43:13.908Z,33.20
2023-01-31T22:45:40.377Z,33.00
2023-01-31T22:48:06.867Z,32.70
2023-01-31T22:50:33.350Z,33.70
2023-01-31T22:52:59.846Z,33.70
2023-01-31T22:55:26.340Z,33.60
2023-01-31T22:57:52.788Z,33.60
2023-01-31T23:00:19.451Z,33.00
2023-01-31T23:02:46.088Z,33.10
2023-01-31T23:05:12.519Z,33.20
2023-01-31T23:07:38.979Z,33.60
2023-01-31T23:10:05.416Z,33.60
2023-01-31T23:12:31.845Z,33.60
2023-01-31T23:14:58.331Z,33.20
2023-01-31T23:17:24.808Z,33.40
2023-01-31T23:19:51.302Z,33.20
2023-01-31T23:22:17.803Z,33.10
2023-01-31T23:24:44.290Z,33.40
2023-01-31T23:27:10.770Z,33.30
2023-01-31T23:29:37.256Z,33.10
2023-01-31T23:32:03.740Z,33.10
2023-01-31T23:34:30.197Z,33.30
2023-01-31T23:36:56.672Z,33.40
2023-01-31T23:39:23.176Z,33.70
2023-01-31T23:41:49.675Z,33.70
2023-01-31T23:44:16.118Z,32.90
2023-01-31T23:46:42.554Z,33.70
2023-01-31T23:49:08.990Z,33.70
2023-01-31T23:51:35.424Z,33.70
2023-01-31T23:54:01.871Z,33.60
2023-01-31T23:56:28.358Z,33.70
2023-01-31T23:58:54.808Z,33.70
